sensor_id;sensor_type;location;lat;lon;timestamp;temperature;humidity
16384;DHT22;8301;51.440;6.610;2022-12-07T00:01:30;4.60;99.90
16384;DHT22;8301;51.440;6.610;2022-12-07T00:04:00;4.60;99.90
16384;DHT22;8301;51.440;6.610;2022-12-07T00:06:35;4.60;99.90
16384;DHT22;8301;51.440;6.610;2022-12-07T00:08:58;4.60;99.90
16384;DHT22;8301;51.440;6.610;2022-12-07T00:11:26;4.60;99.90
16384;DHT22;8301;51.440;6.610;2022-12-07T00:13:56;4.60;99.90
16384;DHT22;8301;51.440;6.610;2022-12-07T00:16:31;4.60;99.90
16384;DHT22;8301;51.440;6.610;2022-12-07T00:19:00;4.60;99.90
16384;DHT22;8301;51.440;6.610;2022-12-07T00:21:30;4.60;99.90
16384;DHT22;8301;51.440;6.610;2022-12-07T00:23:58;4.50;99.90
16384;DHT22;8301;51.440;6.610;2022-12-07T00:26:28;4.60;99.90
16384;DHT22;8301;51.440;6.610;2022-12-07T00:28:59;4.60;99.90
16384;DHT22;8301;51.440;6.610;2022-12-07T00:31:29;4.60;99.90
16384;DHT22;8301;51.440;6.610;2022-12-07T00:33:59;4.50;99.90
16384;DHT22;8301;51.440;6.610;2022-12-07T00:36:27;4.50;99.90
16384;DHT22;8301;51.440;6.610;2022-12-07T00:38:57;4.50;99.90
16384;DHT22;8301;51.440;6.610;2022-12-07T00:41:26;4.50;99.90
16384;DHT22;8301;51.440;6.610;2022-12-07T00:43:54;4.50;99.90
16384;DHT22;8301;51.440;6.610;2022-12-07T00:46:23;4.50;99.90
16384;DHT22;8301;51.440;6.610;2022-12-07T00:48:52;4.40;99.90
16384;DHT22;8301;51.440;6.610;2022-12-07T00:51:22;4.40;99.90
16384;DHT22;8301;51.440;6.610;2022-12-07T00:53:50;4.40;99.90
16384;DHT22;8301;51.440;6.610;2022-12-07T00:56:24;4.40;99.90
16384;DHT22;8301;51.440;6.610;2022-12-07T00:58:54;4.40;99.90
16384;DHT22;8301;51.440;6.610;2022-12-07T01:01:23;4.40;99.90
16384;DHT22;8301;51.440;6.610;2022-12-07T01:03:52;4.40;99.90
16384;DHT22;8301;51.440;6.610;2022-12-07T01:06:21;4.40;99.90
16384;DHT22;8301;51.440;6.610;2022-12-07T01:08:49;4.40;99.90
16384;DHT22;8301;51.440;6.610;2022-12-07T01:11:19;4.40;99.90
16384;DHT22;8301;51.440;6.610;2022-12-07T01:13:50;4.40;99.90
16384;DHT22;8301;51.440;6.610;2022-12-07T01:16:18;4.30;99.90
16384;DHT22;8301;51.440;6.610;2022-12-07T01:18:50;4.30;99.90
16384;DHT22;8301;51.440;6.610;2022-12-07T01:21:22;4.20;99.90
16384;DHT22;8301;51.440;6.610;2022-12-07T01:23:53;4.20;99.90
16384;DHT22;8301;51.440;6.610;2022-12-07T01:26:24;4.10;99.90
16384;DHT22;8301;51.440;6.610;2022-12-07T01:28:52;4.10;99.90
16384;DHT22;8301;51.440;6.610;2022-12-07T01:31:24;4.10;99.90
16384;DHT22;8301;51.440;6.610;2022-12-07T01:33:55;4.00;99.90
16384;DHT22;8301;51.440;6.610;2022-12-07T01:36:32;4.00;99.90
16384;DHT22;8301;51.440;6.610;2022-12-07T01:39:02;4.00;99.90
16384;DHT22;8301;51.440;6.610;2022-12-07T01:41:35;4.00;99.90
16384;DHT22;8301;51.440;6.610;2022-12-07T01:46:41;3.90;99.90
16384;DHT22;8301;51.440;6.610;2022-12-07T01:49:16;4.00;99.90
16384;DHT22;8301;51.440;6.610;2022-12-07T01:51:40;3.90;99.90
16384;DHT22;8301;51.440;6.610;2022-12-07T01:54:11;3.90;99.90
16384;DHT22;8301;51.440;6.610;2022-12-07T01:56:43;3.80;99.90
16384;DHT22;8301;51.440;6.610;2022-12-07T01:59:11;3.80;99.90
16384;DHT22;8301;51.440;6.610;2022-12-07T02:01:38;3.80;99.90
16384;DHT22;8301;51.440;6.610;2022-12-07T02:04:06;3.80;99.90
16384;DHT22;8301;51.440;6.610;2022-12-07T02:06:35;3.80;99.90
16384;DHT22;8301;51.440;6.610;2022-12-07T02:09:04;3.80;99.90
16384;DHT22;8301;51.440;6.610;2022-12-07T02:11:33;3.70;99.90
16384;DHT22;8301;51.440;6.610;2022-12-07T02:14:00;3.80;99.90
16384;DHT22;8301;51.440;6.610;2022-12-07T02:16:51;3.80;99.90
16384;DHT22;8301;51.440;6.610;2022-12-07T02:30:40;3.70;99.90
16384;DHT22;8301;51.440;6.610;2022-12-07T02:33:36;3.70;99.90
16384;DHT22;8301;51.440;6.610;2022-12-07T02:39:07;3.70;99.90
16384;DHT22;8301;51.440;6.610;2022-12-07T02:41:40;3.60;99.90
16384;DHT22;8301;51.440;6.610;2022-12-07T02:44:14;3.60;99.90
16384;DHT22;8301;51.440;6.610;2022-12-07T02:46:46;3.50;99.90
16384;DHT22;8301;51.440;6.610;2022-12-07T02:49:13;3.50;99.90
16384;DHT22;8301;51.440;6.610;2022-12-07T02:51:45;3.40;99.90
16384;DHT22;8301;51.440;6.610;2022-12-07T02:54:18;3.30;99.90
16384;DHT22;8301;51.440;6.610;2022-12-07T02:56:52;3.20;99.90
16384;DHT22;8301;51.440;6.610;2022-12-07T03:04:59;3.20;99.90
16384;DHT22;8301;51.440;6.610;2022-12-07T03:08:19;3.20;99.90
16384;DHT22;8301;51.440;6.610;2022-12-07T03:10:35;3.20;99.90
16384;DHT22;8301;51.440;6.610;2022-12-07T03:13:12;3.20;99.90
16384;DHT22;8301;51.440;6.610;2022-12-07T03:18:39;3.20;99.90
16384;DHT22;8301;51.440;6.610;2022-12-07T03:21:09;3.20;99.90
16384;DHT22;8301;51.440;6.610;2022-12-07T03:23:39;3.10;99.90
16384;DHT22;8301;51.440;6.610;2022-12-07T03:26:09;3.00;99.90
16384;DHT22;8301;51.440;6.610;2022-12-07T03:28:41;2.90;99.90
16384;DHT22;8301;51.440;6.610;2022-12-07T03:33:46;2.70;99.90
16384;DHT22;8301;51.440;6.610;2022-12-07T03:38:45;2.70;99.90
16384;DHT22;8301;51.440;6.610;2022-12-07T03:41:16;2.70;99.90
16384;DHT22;8301;51.440;6.610;2022-12-07T03:43:44;2.70;99.90
16384;DHT22;8301;51.440;6.610;2022-12-07T03:52:44;2.80;99.90
16384;DHT22;8301;51.440;6.610;2022-12-07T03:54:33;2.90;99.90
16384;DHT22;8301;51.440;6.610;2022-12-07T03:57:02;3.00;99.90
16384;DHT22;8301;51.440;6.610;2022-12-07T03:59:31;3.10;99.90
16384;DHT22;8301;51.440;6.610;2022-12-07T04:02:02;3.10;99.90
16384;DHT22;8301;51.440;6.610;2022-12-07T04:04:30;3.10;99.90
16384;DHT22;8301;51.440;6.610;2022-12-07T04:06:58;3.20;99.90
16384;DHT22;8301;51.440;6.610;2022-12-07T04:09:27;3.20;99.90
16384;DHT22;8301;51.440;6.610;2022-12-07T04:11:55;3.20;99.90
16384;DHT22;8301;51.440;6.610;2022-12-07T04:14:22;3.30;99.90
16384;DHT22;8301;51.440;6.610;2022-12-07T04:16:52;3.30;99.90
16384;DHT22;8301;51.440;6.610;2022-12-07T04:19:22;3.30;99.90
16384;DHT22;8301;51.440;6.610;2022-12-07T04:21:50;3.30;99.90
16384;DHT22;8301;51.440;6.610;2022-12-07T04:24:17;3.20;99.90
16384;DHT22;8301;51.440;6.610;2022-12-07T04:26:45;3.10;99.90
16384;DHT22;8301;51.440;6.610;2022-12-07T04:29:14;3.00;99.90
16384;DHT22;8301;51.440;6.610;2022-12-07T04:31:42;3.00;99.90
16384;DHT22;8301;51.440;6.610;2022-12-07T04:34:10;2.90;99.90
16384;DHT22;8301;51.440;6.610;2022-12-07T04:36:39;2.80;99.90
16384;DHT22;8301;51.440;6.610;2022-12-07T04:39:09;2.80;99.90
16384;DHT22;8301;51.440;6.610;2022-12-07T04:41:36;2.80;99.90
16384;DHT22;8301;51.440;6.610;2022-12-07T04:44:04;2.80;99.90
16384;DHT22;8301;51.440;6.610;2022-12-07T04:46:34;2.80;99.90
16384;DHT22;8301;51.440;6.610;2022-12-07T04:49:02;2.90;99.90
16384;DHT22;8301;51.440;6.610;2022-12-07T04:51:31;2.90;99.90
16384;DHT22;8301;51.440;6.610;2022-12-07T04:53:59;2.90;99.90
16384;DHT22;8301;51.440;6.610;2022-12-07T04:56:28;2.90;99.90
16384;DHT22;8301;51.440;6.610;2022-12-07T04:58:56;2.90;99.90
16384;DHT22;8301;51.440;6.610;2022-12-07T05:01:24;3.00;99.90
16384;DHT22;8301;51.440;6.610;2022-12-07T05:03:52;3.00;99.90
16384;DHT22;8301;51.440;6.610;2022-12-07T05:06:19;3.00;99.90
16384;DHT22;8301;51.440;6.610;2022-12-07T05:08:47;3.00;99.90
16384;DHT22;8301;51.440;6.610;2022-12-07T05:11:16;2.90;99.90
16384;DHT22;8301;51.440;6.610;2022-12-07T05:14:03;2.90;99.90
16384;DHT22;8301;51.440;6.610;2022-12-07T05:16:31;3.00;99.90
16384;DHT22;8301;51.440;6.610;2022-12-07T05:18:59;2.90;99.90
16384;DHT22;8301;51.440;6.610;2022-12-07T05:21:27;3.00;99.90
16384;DHT22;8301;51.440;6.610;2022-12-07T05:23:54;2.90;99.90
16384;DHT22;8301;51.440;6.610;2022-12-07T05:26:22;3.00;99.90
16384;DHT22;8301;51.440;6.610;2022-12-07T05:28:53;3.00;99.90
16384;DHT22;8301;51.440;6.610;2022-12-07T05:31:21;3.00;99.90
16384;DHT22;8301;51.440;6.610;2022-12-07T05:33:49;3.00;99.90
16384;DHT22;8301;51.440;6.610;2022-12-07T05:36:17;2.90;99.90
16384;DHT22;8301;51.440;6.610;2022-12-07T05:38:45;3.00;99.90
16384;DHT22;8301;51.440;6.610;2022-12-07T05:41:15;3.00;99.90
16384;DHT22;8301;51.440;6.610;2022-12-07T05:44:03;3.00;99.90
16384;DHT22;8301;51.440;6.610;2022-12-07T05:46:30;3.00;99.90
16384;DHT22;8301;51.440;6.610;2022-12-07T05:48:58;3.00;99.90
16384;DHT22;8301;51.440;6.610;2022-12-07T05:51:26;3.00;99.90
16384;DHT22;8301;51.440;6.610;2022-12-07T05:53:53;3.00;99.90
16384;DHT22;8301;51.440;6.610;2022-12-07T05:56:21;3.00;99.90
16384;DHT22;8301;51.440;6.610;2022-12-07T05:58:49;3.00;99.90
16384;DHT22;8301;51.440;6.610;2022-12-07T06:01:36;3.00;99.90
16384;DHT22;8301;51.440;6.610;2022-12-07T06:04:03;3.00;99.90
16384;DHT22;8301;51.440;6.610;2022-12-07T06:06:31;3.00;99.90
16384;DHT22;8301;51.440;6.610;2022-12-07T06:08:58;2.90;99.90
16384;DHT22;8301;51.440;6.610;2022-12-07T06:11:26;2.90;99.90
16384;DHT22;8301;51.440;6.610;2022-12-07T06:14:11;2.90;99.90
16384;DHT22;8301;51.440;6.610;2022-12-07T06:16:40;2.90;99.90
16384;DHT22;8301;51.440;6.610;2022-12-07T06:19:08;2.90;99.90
16384;DHT22;8301;51.440;6.610;2022-12-07T06:21:36;2.90;99.90
16384;DHT22;8301;51.440;6.610;2022-12-07T06:24:03;3.00;99.90
16384;DHT22;8301;51.440;6.610;2022-12-07T06:26:31;3.00;99.90
16384;DHT22;8301;51.440;6.610;2022-12-07T06:28:59;3.00;99.90
16384;DHT22;8301;51.440;6.610;2022-12-07T06:31:27;3.00;99.90
16384;DHT22;8301;51.440;6.610;2022-12-07T06:34:04;2.90;99.90
16384;DHT22;8301;51.440;6.610;2022-12-07T06:36:33;3.00;99.90
16384;DHT22;8301;51.440;6.610;2022-12-07T06:39:02;3.00;99.90
16384;DHT22;8301;51.440;6.610;2022-12-07T06:41:30;3.00;99.90
16384;DHT22;8301;51.440;6.610;2022-12-07T06:43:57;3.00;99.90
16384;DHT22;8301;51.440;6.610;2022-12-07T06:46:25;3.10;99.90
16384;DHT22;8301;51.440;6.610;2022-12-07T06:48:53;3.10;99.90
16384;DHT22;8301;51.440;6.610;2022-12-07T06:51:22;3.10;99.90
16384;DHT22;8301;51.440;6.610;2022-12-07T06:53:50;3.00;99.90
16384;DHT22;8301;51.440;6.610;2022-12-07T06:56:17;3.00;99.90
16384;DHT22;8301;51.440;6.610;2022-12-07T06:58:53;3.00;99.90
16384;DHT22;8301;51.440;6.610;2022-12-07T07:01:18;3.00;99.90
16384;DHT22;8301;51.440;6.610;2022-12-07T07:06:23;3.00;99.90
16384;DHT22;8301;51.440;6.610;2022-12-07T07:12:06;2.80;99.90
16384;DHT22;8301;51.440;6.610;2022-12-07T07:14:34;2.70;99.90
16384;DHT22;8301;51.440;6.610;2022-12-07T07:17:07;2.70;99.90
16384;DHT22;8301;51.440;6.610;2022-12-07T07:19:39;2.70;99.90
16384;DHT22;8301;51.440;6.610;2022-12-07T07:35:08;2.40;99.90
16384;DHT22;8301;51.440;6.610;2022-12-07T07:37:40;2.40;99.90
16384;DHT22;8301;51.440;6.610;2022-12-07T07:45:26;2.30;99.90
16384;DHT22;8301;51.440;6.610;2022-12-07T07:50:45;2.30;99.90
16384;DHT22;8301;51.440;6.610;2022-12-07T07:56:17;2.30;99.90
16384;DHT22;8301;51.440;6.610;2022-12-07T08:07:34;2.30;99.90
16384;DHT22;8301;51.440;6.610;2022-12-07T08:12:40;2.30;99.90
16384;DHT22;8301;51.440;6.610;2022-12-07T08:20:22;2.40;99.90
16384;DHT22;8301;51.440;6.610;2022-12-07T08:22:54;2.40;99.90
16384;DHT22;8301;51.440;6.610;2022-12-07T08:25:29;2.60;99.90
16384;DHT22;8301;51.440;6.610;2022-12-07T08:28:03;2.70;99.90
16384;DHT22;8301;51.440;6.610;2022-12-07T08:30:35;2.80;99.90
16384;DHT22;8301;51.440;6.610;2022-12-07T08:38:20;3.00;99.90
16384;DHT22;8301;51.440;6.610;2022-12-07T08:41:03;3.10;99.90
16384;DHT22;8301;51.440;6.610;2022-12-07T08:43:32;3.10;99.90
16384;DHT22;8301;51.440;6.610;2022-12-07T08:46:23;3.20;99.90
16384;DHT22;8301;51.440;6.610;2022-12-07T08:49:04;3.30;99.90
16384;DHT22;8301;51.440;6.610;2022-12-07T08:59:46;3.10;99.90
16384;DHT22;8301;51.440;6.610;2022-12-07T09:02:46;3.20;99.90
16384;DHT22;8301;51.440;6.610;2022-12-07T09:16:20;3.70;99.90
16384;DHT22;8301;51.440;6.610;2022-12-07T09:24:59;4.00;99.90
16384;DHT22;8301;51.440;6.610;2022-12-07T09:27:31;3.90;99.90
16384;DHT22;8301;51.440;6.610;2022-12-07T09:30:12;3.90;99.90
16384;DHT22;8301;51.440;6.610;2022-12-07T09:32:58;3.90;99.90
16384;DHT22;8301;51.440;6.610;2022-12-07T09:35:30;3.90;99.90
16384;DHT22;8301;51.440;6.610;2022-12-07T09:38:03;3.90;99.90
16384;DHT22;8301;51.440;6.610;2022-12-07T09:40:41;3.80;99.90
16384;DHT22;8301;51.440;6.610;2022-12-07T09:43:13;3.90;99.90
16384;DHT22;8301;51.440;6.610;2022-12-07T09:45:58;3.90;99.90
16384;DHT22;8301;51.440;6.610;2022-12-07T09:48:33;4.10;99.90
16384;DHT22;8301;51.440;6.610;2022-12-07T09:51:20;4.30;99.90
16384;DHT22;8301;51.440;6.610;2022-12-07T09:53:56;4.40;99.90
16384;DHT22;8301;51.440;6.610;2022-12-07T09:56:28;4.30;99.90
16384;DHT22;8301;51.440;6.610;2022-12-07T09:59:00;4.30;99.90
16384;DHT22;8301;51.440;6.610;2022-12-07T10:01:32;4.40;99.90
16384;DHT22;8301;51.440;6.610;2022-12-07T10:04:24;4.40;99.90
16384;DHT22;8301;51.440;6.610;2022-12-07T10:06:58;4.50;99.90
16384;DHT22;8301;51.440;6.610;2022-12-07T10:09:26;4.50;99.90
16384;DHT22;8301;51.440;6.610;2022-12-07T10:12:02;4.50;99.90
16384;DHT22;8301;51.440;6.610;2022-12-07T10:14:37;4.50;99.90
16384;DHT22;8301;51.440;6.610;2022-12-07T10:17:38;4.60;99.90
16384;DHT22;8301;51.440;6.610;2022-12-07T10:19:52;4.70;99.90
16384;DHT22;8301;51.440;6.610;2022-12-07T10:22:22;4.70;99.90
16384;DHT22;8301;51.440;6.610;2022-12-07T10:46:22;5.80;99.90
16384;DHT22;8301;51.440;6.610;2022-12-07T10:51:56;5.80;99.90
16384;DHT22;8301;51.440;6.610;2022-12-07T11:15:26;6.00;99.90
16384;DHT22;8301;51.440;6.610;2022-12-07T11:18:19;6.00;99.90
16384;DHT22;8301;51.440;6.610;2022-12-07T11:20:43;5.90;99.90
16384;DHT22;8301;51.440;6.610;2022-12-07T11:26:30;6.00;99.90
16384;DHT22;8301;51.440;6.610;2022-12-07T11:34:53;6.00;99.90
16384;DHT22;8301;51.440;6.610;2022-12-07T11:37:21;5.90;99.90
16384;DHT22;8301;51.440;6.610;2022-12-07T11:40:11;6.00;99.90
16384;DHT22;8301;51.440;6.610;2022-12-07T11:42:40;5.90;99.90
16384;DHT22;8301;51.440;6.610;2022-12-07T11:45:16;5.90;99.90
16384;DHT22;8301;51.440;6.610;2022-12-07T11:48:02;5.90;99.90
16384;DHT22;8301;51.440;6.610;2022-12-07T11:50:50;5.80;99.90
16384;DHT22;8301;51.440;6.610;2022-12-07T11:53:38;5.80;99.90
16384;DHT22;8301;51.440;6.610;2022-12-07T11:56:23;5.90;99.90
16384;DHT22;8301;51.440;6.610;2022-12-07T11:59:12;5.90;99.90
16384;DHT22;8301;51.440;6.610;2022-12-07T12:01:44;5.80;99.90
16384;DHT22;8301;51.440;6.610;2022-12-07T12:04:18;5.80;99.90
16384;DHT22;8301;51.440;6.610;2022-12-07T12:06:44;5.80;99.90
16384;DHT22;8301;51.440;6.610;2022-12-07T12:09:14;5.90;99.90
16384;DHT22;8301;51.440;6.610;2022-12-07T12:14:24;5.90;99.90
16384;DHT22;8301;51.440;6.610;2022-12-07T12:22:48;5.80;99.90
16384;DHT22;8301;51.440;6.610;2022-12-07T12:26:13;5.80;99.90
16384;DHT22;8301;51.440;6.610;2022-12-07T12:28:00;5.30;99.90
16384;DHT22;8301;51.440;6.610;2022-12-07T12:30:36;5.20;99.90
16384;DHT22;8301;51.440;6.610;2022-12-07T12:33:13;5.10;99.90
16384;DHT22;8301;51.440;6.610;2022-12-07T12:35:41;5.20;99.90
16384;DHT22;8301;51.440;6.610;2022-12-07T12:38:29;5.40;99.90
16384;DHT22;8301;51.440;6.610;2022-12-07T12:40:57;5.40;99.90
16384;DHT22;8301;51.440;6.610;2022-12-07T12:43:48;5.50;99.90
16384;DHT22;8301;51.440;6.610;2022-12-07T12:51:44;5.50;99.90
16384;DHT22;8301;51.440;6.610;2022-12-07T12:54:22;5.60;99.90
16384;DHT22;8301;51.440;6.610;2022-12-07T12:57:16;5.60;99.90
16384;DHT22;8301;51.440;6.610;2022-12-07T13:02:37;5.60;99.90
16384;DHT22;8301;51.440;6.610;2022-12-07T13:10:42;5.70;99.90
16384;DHT22;8301;51.440;6.610;2022-12-07T13:15:51;5.80;99.90
16384;DHT22;8301;51.440;6.610;2022-12-07T13:21:00;5.80;99.90
16384;DHT22;8301;51.440;6.610;2022-12-07T13:23:32;5.80;99.90
16384;DHT22;8301;51.440;6.610;2022-12-07T13:28:51;5.80;99.90
16384;DHT22;8301;51.440;6.610;2022-12-07T13:31:45;5.80;99.90
16384;DHT22;8301;51.440;6.610;2022-12-07T13:34:33;5.70;99.90
16384;DHT22;8301;51.440;6.610;2022-12-07T13:39:54;5.80;99.90
16384;DHT22;8301;51.440;6.610;2022-12-07T13:42:33;5.70;99.90
16384;DHT22;8301;51.440;6.610;2022-12-07T13:45:26;5.70;99.90
16384;DHT22;8301;51.440;6.610;2022-12-07T13:48:01;5.60;99.90
16384;DHT22;8301;51.440;6.610;2022-12-07T13:50:32;5.70;99.90
16384;DHT22;8301;51.440;6.610;2022-12-07T13:53:01;5.70;99.90
16384;DHT22;8301;51.440;6.610;2022-12-07T13:55:30;5.70;99.90
16384;DHT22;8301;51.440;6.610;2022-12-07T13:57:59;5.60;99.90
16384;DHT22;8301;51.440;6.610;2022-12-07T14:00:28;5.60;99.90
16384;DHT22;8301;51.440;6.610;2022-12-07T14:05:45;5.50;99.90
16384;DHT22;8301;51.440;6.610;2022-12-07T14:13:33;5.20;99.90
16384;DHT22;8301;51.440;6.610;2022-12-07T14:16:03;5.20;99.90
16384;DHT22;8301;51.440;6.610;2022-12-07T14:18:37;5.10;99.90
16384;DHT22;8301;51.440;6.610;2022-12-07T14:23:45;4.80;99.90
16384;DHT22;8301;51.440;6.610;2022-12-07T14:26:23;4.80;99.90
16384;DHT22;8301;51.440;6.610;2022-12-07T14:34:00;4.80;99.90
16384;DHT22;8301;51.440;6.610;2022-12-07T14:36:28;4.80;99.90
16384;DHT22;8301;51.440;6.610;2022-12-07T14:38:55;4.80;99.90
16384;DHT22;8301;51.440;6.610;2022-12-07T14:41:25;4.70;99.90
16384;DHT22;8301;51.440;6.610;2022-12-07T14:44:12;4.60;99.90
16384;DHT22;8301;51.440;6.610;2022-12-07T14:46:45;4.60;99.90
16384;DHT22;8301;51.440;6.610;2022-12-07T14:49:13;4.60;99.90
16384;DHT22;8301;51.440;6.610;2022-12-07T14:51:43;4.60;99.90
16384;DHT22;8301;51.440;6.610;2022-12-07T14:54:16;4.60;99.90
16384;DHT22;8301;51.440;6.610;2022-12-07T15:02:14;4.40;99.90
16384;DHT22;8301;51.440;6.610;2022-12-07T15:04:44;4.30;99.90
16384;DHT22;8301;51.440;6.610;2022-12-07T15:07:21;4.30;99.90
16384;DHT22;8301;51.440;6.610;2022-12-07T15:09:49;4.20;99.90
16384;DHT22;8301;51.440;6.610;2022-12-07T15:12:16;4.20;99.90
16384;DHT22;8301;51.440;6.610;2022-12-07T15:14:44;4.20;99.90
16384;DHT22;8301;51.440;6.610;2022-12-07T15:17:12;4.20;99.90
16384;DHT22;8301;51.440;6.610;2022-12-07T15:19:39;4.10;99.90
16384;DHT22;8301;51.440;6.610;2022-12-07T15:22:08;4.10;99.90
16384;DHT22;8301;51.440;6.610;2022-12-07T15:24:37;4.10;99.90
16384;DHT22;8301;51.440;6.610;2022-12-07T15:27:05;4.10;99.90
16384;DHT22;8301;51.440;6.610;2022-12-07T15:29:33;4.00;99.90
16384;DHT22;8301;51.440;6.610;2022-12-07T15:32:12;4.00;99.90
16384;DHT22;8301;51.440;6.610;2022-12-07T15:34:45;4.00;99.90
16384;DHT22;8301;51.440;6.610;2022-12-07T15:40:15;3.90;99.90
16384;DHT22;8301;51.440;6.610;2022-12-07T15:42:43;4.00;99.90
16384;DHT22;8301;51.440;6.610;2022-12-07T15:45:11;4.00;99.90
16384;DHT22;8301;51.440;6.610;2022-12-07T15:47:45;3.90;99.90
16384;DHT22;8301;51.440;6.610;2022-12-07T15:50:24;4.00;99.90
16384;DHT22;8301;51.440;6.610;2022-12-07T15:52:54;4.10;99.90
16384;DHT22;8301;51.440;6.610;2022-12-07T15:55:22;4.10;99.90
16384;DHT22;8301;51.440;6.610;2022-12-07T15:57:50;4.10;99.90
16384;DHT22;8301;51.440;6.610;2022-12-07T16:00:18;4.10;99.90
16384;DHT22;8301;51.440;6.610;2022-12-07T16:02:54;4.10;99.90
16384;DHT22;8301;51.440;6.610;2022-12-07T16:05:16;4.10;99.90
16384;DHT22;8301;51.440;6.610;2022-12-07T16:07:44;4.10;99.90
16384;DHT22;8301;51.440;6.610;2022-12-07T16:10:14;4.20;99.90
16384;DHT22;8301;51.440;6.610;2022-12-07T16:12:41;4.20;99.90
16384;DHT22;8301;51.440;6.610;2022-12-07T16:15:09;4.10;99.90
16384;DHT22;8301;51.440;6.610;2022-12-07T16:17:37;4.10;99.90
16384;DHT22;8301;51.440;6.610;2022-12-07T16:20:05;4.10;99.90
16384;DHT22;8301;51.440;6.610;2022-12-07T16:22:33;4.20;99.90
16384;DHT22;8301;51.440;6.610;2022-12-07T16:25:00;4.20;99.90
16384;DHT22;8301;51.440;6.610;2022-12-07T16:27:29;4.20;99.90
16384;DHT22;8301;51.440;6.610;2022-12-07T16:29:56;4.30;99.90
16384;DHT22;8301;51.440;6.610;2022-12-07T16:32:24;4.30;99.90
16384;DHT22;8301;51.440;6.610;2022-12-07T16:34:51;4.40;99.90
16384;DHT22;8301;51.440;6.610;2022-12-07T16:37:19;4.40;99.90
16384;DHT22;8301;51.440;6.610;2022-12-07T16:39:47;4.40;99.90
16384;DHT22;8301;51.440;6.610;2022-12-07T16:42:15;4.40;99.90
16384;DHT22;8301;51.440;6.610;2022-12-07T16:44:49;4.40;99.90
16384;DHT22;8301;51.440;6.610;2022-12-07T16:47:18;4.40;99.90
16384;DHT22;8301;51.440;6.610;2022-12-07T16:52:26;4.30;99.90
16384;DHT22;8301;51.440;6.610;2022-12-07T16:57:31;4.20;99.90
16384;DHT22;8301;51.440;6.610;2022-12-07T17:00:02;4.30;99.90
16384;DHT22;8301;51.440;6.610;2022-12-07T17:02:30;4.20;99.90
16384;DHT22;8301;51.440;6.610;2022-12-07T17:04:58;4.30;99.90
16384;DHT22;8301;51.440;6.610;2022-12-07T17:07:25;4.30;99.90
16384;DHT22;8301;51.440;6.610;2022-12-07T17:09:53;4.20;99.90
16384;DHT22;8301;51.440;6.610;2022-12-07T17:12:20;4.20;99.90
16384;DHT22;8301;51.440;6.610;2022-12-07T17:14:48;4.20;99.90
16384;DHT22;8301;51.440;6.610;2022-12-07T17:20:47;4.20;99.90
16384;DHT22;8301;51.440;6.610;2022-12-07T17:23:15;4.00;99.90
16384;DHT22;8301;51.440;6.610;2022-12-07T17:25:50;4.00;99.90
16384;DHT22;8301;51.440;6.610;2022-12-07T17:28:24;4.00;99.90
16384;DHT22;8301;51.440;6.610;2022-12-07T17:30:51;4.10;99.90
16384;DHT22;8301;51.440;6.610;2022-12-07T17:33:19;4.20;99.90
16384;DHT22;8301;51.440;6.610;2022-12-07T17:35:48;4.00;99.90
16384;DHT22;8301;51.440;6.610;2022-12-07T17:40:58;4.00;99.90
16384;DHT22;8301;51.440;6.610;2022-12-07T17:43:26;4.00;99.90
16384;DHT22;8301;51.440;6.610;2022-12-07T17:45:53;3.90;99.90
16384;DHT22;8301;51.440;6.610;2022-12-07T17:48:21;4.00;99.90
16384;DHT22;8301;51.440;6.610;2022-12-07T17:50:48;3.90;99.90
16384;DHT22;8301;51.440;6.610;2022-12-07T17:53:29;3.90;99.90
16384;DHT22;8301;51.440;6.610;2022-12-07T17:55:57;3.90;99.90
16384;DHT22;8301;51.440;6.610;2022-12-07T17:58:24;3.80;99.90
16384;DHT22;8301;51.440;6.610;2022-12-07T18:00:53;3.90;99.90
16384;DHT22;8301;51.440;6.610;2022-12-07T18:03:21;3.90;99.90
16384;DHT22;8301;51.440;6.610;2022-12-07T18:05:49;3.80;99.90
16384;DHT22;8301;51.440;6.610;2022-12-07T18:08:16;3.80;99.90
16384;DHT22;8301;51.440;6.610;2022-12-07T18:10:44;3.80;99.90
16384;DHT22;8301;51.440;6.610;2022-12-07T18:13:11;3.80;99.90
16384;DHT22;8301;51.440;6.610;2022-12-07T18:15:57;3.80;99.90
16384;DHT22;8301;51.440;6.610;2022-12-07T18:18:31;3.70;99.90
16384;DHT22;8301;51.440;6.610;2022-12-07T18:21:03;3.70;99.90
16384;DHT22;8301;51.440;6.610;2022-12-07T18:23:32;3.70;99.90
16384;DHT22;8301;51.440;6.610;2022-12-07T18:26:00;3.70;99.90
16384;DHT22;8301;51.440;6.610;2022-12-07T18:28:27;3.70;99.90
16384;DHT22;8301;51.440;6.610;2022-12-07T18:30:56;3.60;99.90
16384;DHT22;8301;51.440;6.610;2022-12-07T18:33:24;3.70;99.90
16384;DHT22;8301;51.440;6.610;2022-12-07T18:35:51;3.60;99.90
16384;DHT22;8301;51.440;6.610;2022-12-07T18:38:19;3.70;99.90
16384;DHT22;8301;51.440;6.610;2022-12-07T18:40:46;3.60;99.90
16384;DHT22;8301;51.440;6.610;2022-12-07T18:43:14;3.70;99.90
16384;DHT22;8301;51.440;6.610;2022-12-07T18:45:44;3.70;99.90
16384;DHT22;8301;51.440;6.610;2022-12-07T18:48:23;3.70;99.90
16384;DHT22;8301;51.440;6.610;2022-12-07T18:51:09;3.70;99.90
16384;DHT22;8301;51.440;6.610;2022-12-07T18:53:39;3.70;99.90
16384;DHT22;8301;51.440;6.610;2022-12-07T18:56:15;3.70;99.90
16384;DHT22;8301;51.440;6.610;2022-12-07T18:58:53;3.70;99.90
16384;DHT22;8301;51.440;6.610;2022-12-07T19:01:39;3.60;99.90
16384;DHT22;8301;51.440;6.610;2022-12-07T19:04:07;3.50;99.90
16384;DHT22;8301;51.440;6.610;2022-12-07T19:06:37;3.60;99.90
16384;DHT22;8301;51.440;6.610;2022-12-07T19:09:08;3.50;99.90
16384;DHT22;8301;51.440;6.610;2022-12-07T19:11:36;3.50;99.90
16384;DHT22;8301;51.440;6.610;2022-12-07T19:16:54;3.50;99.90
16384;DHT22;8301;51.440;6.610;2022-12-07T19:19:33;3.40;99.90
16384;DHT22;8301;51.440;6.610;2022-12-07T19:22:01;3.40;99.90
16384;DHT22;8301;51.440;6.610;2022-12-07T19:24:29;3.40;99.90
16384;DHT22;8301;51.440;6.610;2022-12-07T19:26:59;3.40;99.90
16384;DHT22;8301;51.440;6.610;2022-12-07T19:29:28;3.50;99.90
16384;DHT22;8301;51.440;6.610;2022-12-07T19:32:04;3.40;99.90
16384;DHT22;8301;51.440;6.610;2022-12-07T19:34:34;3.50;99.90
16384;DHT22;8301;51.440;6.610;2022-12-07T19:37:02;3.50;99.90
16384;DHT22;8301;51.440;6.610;2022-12-07T19:39:30;3.50;99.90
16384;DHT22;8301;51.440;6.610;2022-12-07T19:41:58;3.50;99.90
16384;DHT22;8301;51.440;6.610;2022-12-07T19:44:26;3.50;99.90
16384;DHT22;8301;51.440;6.610;2022-12-07T19:46:57;3.50;99.90
16384;DHT22;8301;51.440;6.610;2022-12-07T19:49:26;3.50;99.90
16384;DHT22;8301;51.440;6.610;2022-12-07T19:51:56;3.50;99.90
16384;DHT22;8301;51.440;6.610;2022-12-07T19:54:27;3.50;99.90
16384;DHT22;8301;51.440;6.610;2022-12-07T19:56:55;3.50;99.90
16384;DHT22;8301;51.440;6.610;2022-12-07T19:59:26;3.60;99.90
16384;DHT22;8301;51.440;6.610;2022-12-07T20:01:54;3.60;99.90
16384;DHT22;8301;51.440;6.610;2022-12-07T20:04:24;3.50;99.90
16384;DHT22;8301;51.440;6.610;2022-12-07T20:06:54;3.60;99.90
16384;DHT22;8301;51.440;6.610;2022-12-07T20:09:23;3.50;99.90
16384;DHT22;8301;51.440;6.610;2022-12-07T20:11:51;3.50;99.90
16384;DHT22;8301;51.440;6.610;2022-12-07T20:14:36;3.50;99.90
16384;DHT22;8301;51.440;6.610;2022-12-07T20:17:35;3.50;99.90
16384;DHT22;8301;51.440;6.610;2022-12-07T20:20:06;3.50;99.90
16384;DHT22;8301;51.440;6.610;2022-12-07T20:22:35;3.50;99.90
16384;DHT22;8301;51.440;6.610;2022-12-07T20:25:04;3.60;99.90
16384;DHT22;8301;51.440;6.610;2022-12-07T20:27:37;3.60;99.90
16384;DHT22;8301;51.440;6.610;2022-12-07T20:30:07;3.70;99.90